Time;durP1;ratioP1;P1;durP2;ratioP2;P2;SDS_P1;SDS_P2;PMS_P1;PMS_P2;Temp;Humidity;BMP_temperature;BMP_pressure;BME280_temperature;BME280_humidity;BME280_pressure;Samples;Min_cycle;Max_cycle;Signal;HPM_P1;HPM_P2
2023/01/18 00:01:08;;;;;;;27.30;15.43;;;;;;;-144.87;100.00;61487.56;5006232;28;20037;-79
2023/01/18 00:03:35;;;;;;;29.08;16.33;;;;;;;-144.87;100.00;61487.56;5004940;28;20696;-79
2023/01/18 00:06:04;;;;;;;24.83;15.45;;;;;;;-144.87;100.00;61487.56;4999821;28;20045;-79
2023/01/18 00:08:32;;;;;;;34.80;15.75;;;;;;;-144.87;100.00;61487.56;5000110;28;20210;-79
2023/01/18 00:11:06;;;;;;;26.90;15.02;;;;;;;-144.87;100.00;61487.56;5005531;28;20440;-79
2023/01/18 00:13:32;;;;;;;27.67;14.63;;;;;;;-144.87;100.00;61487.56;5004924;28;20121;-79
2023/01/18 00:16:19;;;;;;;26.75;14.85;;;;;;;-144.87;100.00;61487.56;5005265;28;20042;-79
2023/01/18 00:18:56;;;;;;;30.27;15.50;;;;;;;-144.87;100.00;61487.56;4999213;28;20049;-79
2023/01/18 00:21:23;;;;;;;26.50;15.43;;;;;;;-144.87;100.00;61487.56;5001529;28;20072;-79
2023/01/18 00:23:50;;;;;;;30.85;17.50;;;;;;;-144.87;100.00;61487.56;5004831;28;20034;-79
2023/01/18 00:26:16;;;;;;;33.65;16.65;;;;;;;-144.87;100.00;61487.56;5001556;28;20381;-79
2023/01/18 00:28:42;;;;;;;31.27;17.40;;;;;;;-144.87;100.00;61487.56;5005184;28;20042;-79
2023/01/18 00:31:14;;;;;;;33.60;17.83;;;;;;;-144.87;100.00;61487.56;5006328;28;20379;-77
2023/01/18 00:33:44;;;;;;;34.97;18.20;;;;;;;-144.87;100.00;61487.56;5002454;28;20025;-79
2023/01/18 00:36:11;;;;;;;33.45;18.05;;;;;;;-144.87;100.00;61487.56;5002426;28;20049;-79
2023/01/18 00:38:37;;;;;;;33.97;17.85;;;;;;;-144.87;100.00;61487.56;5000688;28;20089;-79
2023/01/18 00:41:07;;;;;;;29.10;16.20;;;;;;;-144.87;100.00;61487.56;5004515;28;20038;-79
2023/01/18 00:43:39;;;;;;;31.92;16.02;;;;;;;-144.87;100.00;61487.56;4987325;28;20040;-78
2023/01/18 00:46:16;;;;;;;30.08;15.00;;;;;;;-144.87;100.00;61487.56;4989585;28;20026;-78
2023/01/18 00:48:43;;;;;;;29.33;16.13;;;;;;;-144.87;100.00;61487.56;5001096;28;20033;-79
2023/01/18 00:51:12;;;;;;;31.65;15.43;;;;;;;-144.87;100.00;61487.56;5003755;28;20068;-78
2023/01/18 00:53:39;;;;;;;28.85;15.38;;;;;;;-144.87;100.00;61487.56;5019439;28;20429;-78
2023/01/18 00:56:09;;;;;;;28.25;15.43;;;;;;;-144.87;100.00;61487.56;4987719;28;20064;-79
2023/01/18 00:58:36;;;;;;;27.15;14.65;;;;;;;-144.87;100.00;61487.56;5007047;28;20404;-79
2023/01/18 01:01:03;;;;;;;27.25;14.55;;;;;;;-144.87;100.00;61487.56;5005035;28;20088;-79
2023/01/18 01:06:42;;;;;;;30.92;16.08;;;;;;;-144.87;100.00;61487.56;4973473;28;20399;-79
2023/01/18 01:09:01;;;;;;;30.13;15.20;;;;;;;-144.87;100.00;61487.56;5007047;28;21992;-79
2023/01/18 01:11:27;;;;;;;30.55;15.82;;;;;;;-144.87;100.00;61487.56;5004307;28;20044;-79
2023/01/18 01:27:39;;;;;;;23.85;12.70;;;;;;;-144.87;100.00;61487.56;5008989;28;20139;-79
2023/01/18 01:30:09;;;;;;;27.73;13.38;;;;;;;-144.87;100.00;61487.56;5008244;28;20060;-79
2023/01/18 01:32:35;;;;;;;23.47;13.37;;;;;;;-144.87;100.00;61487.56;4973582;28;20449;-79
2023/01/18 01:35:01;;;;;;;25.98;13.45;;;;;;;-144.87;100.00;61487.56;5021679;28;20071;-79
2023/01/18 01:37:27;;;;;;;23.38;13.10;;;;;;;-144.87;100.00;61487.56;5021228;28;20072;-79
2023/01/18 01:39:54;;;;;;;20.50;12.75;;;;;;;-144.87;100.00;61487.56;5006525;28;20112;-79
2023/01/18 01:42:20;;;;;;;21.48;12.13;;;;;;;-144.87;100.00;61487.56;5009461;28;20484;-79
2023/01/18 01:44:49;;;;;;;26.48;12.57;;;;;;;-144.87;100.00;61487.56;5020725;28;20029;-79
2023/01/18 01:47:31;;;;;;;20.33;11.70;;;;;;;-144.87;100.00;61487.56;5018408;28;20047;-79
2023/01/18 01:50:02;;;;;;;20.70;12.65;;;;;;;-144.87;100.00;61487.56;5008801;28;20067;-79
2023/01/18 01:52:33;;;;;;;22.02;12.02;;;;;;;-144.87;100.00;61487.56;5008496;28;20034;-79
2023/01/18 01:55:08;;;;;;;21.58;11.98;;;;;;;-144.87;100.00;61487.56;4991120;28;20374;-79
2023/01/18 01:57:38;;;;;;;24.15;12.50;;;;;;;-144.87;100.00;61487.56;5022668;28;20443;-79
2023/01/18 02:00:09;;;;;;;25.67;11.88;;;;;;;-144.87;100.00;61487.56;4992517;28;20081;-79
2023/01/18 02:02:42;;;;;;;25.42;12.43;;;;;;;-144.87;100.00;61487.56;5006453;28;20440;-79
2023/01/18 02:05:11;;;;;;;22.17;11.57;;;;;;;-144.87;100.00;61487.56;5010335;28;20025;-79
2023/01/18 02:07:37;;;;;;;30.65;12.73;;;;;;;-144.87;100.00;61487.56;4993080;28;20022;-79
2023/01/18 02:10:05;;;;;;;23.15;12.60;;;;;;;-144.87;100.00;61487.56;5011522;28;20029;-79
2023/01/18 02:12:33;;;;;;;17.05;10.80;;;;;;;-144.87;100.00;61487.56;5006179;28;20049;-79
2023/01/18 02:14:59;;;;;;;22.55;11.88;;;;;;;-144.87;100.00;61487.56;5008843;28;20045;-79
2023/01/18 02:17:35;;;;;;;21.52;11.05;;;;;;;-144.87;100.00;61487.56;5023856;28;21687;-79
2023/01/18 02:20:31;;;;;;;18.98;11.30;;;;;;;-144.87;100.00;61487.56;5024058;28;20048;-79
2023/01/18 02:23:08;;;;;;;18.92;10.80;;;;;;;-144.87;100.00;61487.56;4971727;28;20107;-79
2023/01/18 02:25:48;;;;;;;20.70;11.35;;;;;;;-144.87;100.00;61487.56;4994121;28;20424;-79
2023/01/18 02:28:19;;;;;;;20.25;10.93;;;;;;;-144.87;100.00;61487.56;5023968;28;20542;-79
2023/01/18 02:30:48;;;;;;;;;;;;;;;-144.87;100.00;61487.56;4994215;28;20037;-79
2023/01/18 02:33:20;;;;;;;16.77;10.10;;;;;;;-144.87;100.00;61487.56;4996524;28;19966;-79
2023/01/18 02:35:56;;;;;;;20.35;10.73;;;;;;;-144.87;100.00;61487.56;5002742;28;20034;-79
2023/01/18 02:38:43;;;;;;;18.63;11.10;;;;;;;-144.87;100.00;61487.56;5008113;28;20108;-79
2023/01/18 02:41:17;;;;;;;22.65;10.43;;;;;;;-144.87;100.00;61487.56;5024071;28;20038;-79
2023/01/18 02:46:32;;;;;;;18.77;9.50;;;;;;;-144.87;100.00;61487.56;4996448;28;20519;-79
2023/01/18 02:49:06;;;;;;;16.55;10.57;;;;;;;-144.87;100.00;61487.56;5010640;28;20127;-79
2023/01/18 02:51:32;;;;;;;21.75;10.68;;;;;;;-144.87;100.00;61487.56;5020710;28;20041;-79
2023/01/18 02:53:59;;;;;;;19.38;9.40;;;;;;;-144.87;100.00;61487.56;4991808;28;20041;-79
2023/01/18 02:56:39;;;;;;;16.05;9.32;;;;;;;-144.87;100.00;61487.56;4992026;28;20424;-79
2023/01/18 02:59:14;;;;;;;16.73;9.18;;;;;;;-144.87;100.00;61487.56;5028210;28;20455;-79
2023/01/18 03:01:53;;;;;;;18.42;9.05;;;;;;;-144.87;100.00;61487.56;5024428;28;20441;-79
2023/01/18 03:04:38;;;;;;;17.23;9.18;;;;;;;-144.87;100.00;61487.56;5006721;28;20400;-79
2023/01/18 03:07:15;;;;;;;16.65;9.35;;;;;;;-144.87;100.00;61487.56;5007151;28;20033;-79
2023/01/18 03:09:42;;;;;;;21.20;8.73;;;;;;;-144.87;100.00;61487.56;4991537;28;20039;-80
2023/01/18 03:12:19;;;;;;;14.85;8.43;;;;;;;-144.87;100.00;61487.56;5004162;28;20081;-79
2023/01/18 03:15:07;;;;;;;15.90;8.80;;;;;;;-144.87;100.00;61487.56;5009897;28;20476;-79
2023/01/18 03:17:38;;;;;;;15.32;7.80;;;;;;;-144.87;100.00;61487.56;4999116;28;20105;-79
2023/01/18 03:20:10;;;;;;;17.63;9.20;;;;;;;-144.87;100.00;61487.56;5011978;28;20034;-79
2023/01/18 03:25:54;;;;;;;14.10;8.40;;;;;;;-144.87;100.00;61487.56;4990293;28;20080;-79
2023/01/18 03:34:21;;;;;;;19.08;8.10;;;;;;;-144.87;100.00;61487.56;5011875;28;20037;-79
2023/01/18 03:36:51;;;;;;;16.50;8.35;;;;;;;-144.87;100.00;61487.56;5004687;28;20145;-79
2023/01/18 03:39:45;;;;;;;15.43;8.57;;;;;;;-144.87;100.00;61487.56;5021708;28;20038;-80
2023/01/18 03:42:19;;;;;;;17.08;8.82;;;;;;;-144.87;100.00;61487.56;5003857;28;20423;-79
2023/01/18 03:44:52;;;;;;;17.20;8.48;;;;;;;-144.87;100.00;61487.56;5023857;28;20048;-80
2023/01/18 03:47:19;;;;;;;17.17;8.85;;;;;;;-144.87;100.00;61487.56;4993716;28;20037;-80
2023/01/18 03:49:45;;;;;;;18.80;8.75;;;;;;;-144.87;100.00;61487.56;5010429;28;20072;-80
2023/01/18 03:52:23;;;;;;;19.65;10.60;;;;;;;-144.87;100.00;61487.56;5005636;28;20586;-79
2023/01/18 03:55:15;;;;;;;14.32;8.82;;;;;;;-144.87;100.00;61487.56;5027615;28;20158;-80
2023/01/18 03:57:55;;;;;;;20.70;10.25;;;;;;;-144.87;100.00;61487.56;5005672;28;20322;-79
2023/01/18 04:00:21;;;;;;;11.80;7.27;;;;;;;-144.87;100.00;61487.56;5024369;28;20053;-80
2023/01/18 04:02:49;;;;;;;16.92;9.77;;;;;;;-144.87;100.00;61487.56;5008264;28;20404;-79
2023/01/18 04:05:16;;;;;;;17.15;10.40;;;;;;;-144.87;100.00;61487.56;5007947;28;20493;-79
2023/01/18 04:07:42;;;;;;;18.85;10.45;;;;;;;-144.87;100.00;61487.56;5005938;28;20057;-79
2023/01/18 04:10:09;;;;;;;19.45;10.23;;;;;;;-144.87;100.00;61487.56;5025052;28;20041;-80
2023/01/18 04:12:36;;;;;;;22.08;10.75;;;;;;;-144.87;100.00;61487.56;5007084;28;20104;-79
2023/01/18 04:15:03;;;;;;;17.55;10.07;;;;;;;-144.87;100.00;61487.56;5009124;28;20041;-79
2023/01/18 04:17:30;;;;;;;18.30;9.45;;;;;;;-144.87;100.00;61487.56;4987913;28;20227;-79
2023/01/18 04:19:57;;;;;;;17.23;10.18;;;;;;;-144.87;100.00;61487.56;4993158;28;20056;-79
2023/01/18 04:22:23;;;;;;;18.05;10.93;;;;;;;-144.87;100.00;61487.56;4995886;28;20037;-79
2023/01/18 04:24:50;;;;;;;14.88;9.63;;;;;;;-144.87;100.00;61487.56;5005776;28;20036;-79
2023/01/18 04:27:16;;;;;;;20.08;11.15;;;;;;;-144.87;100.00;61487.56;5027474;28;20120;-79
2023/01/18 04:29:43;;;;;;;19.38;11.10;;;;;;;-144.87;100.00;61487.56;5005314;28;20116;-79
2023/01/18 04:32:09;;;;;;;17.30;9.98;;;;;;;-144.87;100.00;61487.56;5006553;28;20037;-79
2023/01/18 04:34:35;;;;;;;26.95;11.02;;;;;;;-144.87;100.00;61487.56;5026122;28;20041;-80
2023/01/18 04:37:01;;;;;;;15.65;9.75;;;;;;;-144.87;100.00;61487.56;5007913;28;20036;-79
2023/01/18 04:39:28;;;;;;;19.30;11.05;;;;;;;-144.87;100.00;61487.56;5021405;28;20057;-79
2023/01/18 04:41:54;;;;;;;15.77;10.52;;;;;;;-144.87;100.00;61487.56;5025031;28;20116;-80
2023/01/18 04:44:20;;;;;;;15.35;9.77;;;;;;;-144.87;100.00;61487.56;5024277;28;20049;-80
2023/01/18 04:46:47;;;;;;;16.50;10.07;;;;;;;-144.87;100.00;61487.56;5025251;28;20075;-80
2023/01/18 04:49:16;;;;;;;15.73;10.65;;;;;;;-144.87;100.00;61487.56;5005295;28;20030;-79
2023/01/18 04:51:43;;;;;;;16.05;9.98;;;;;;;-144.87;100.00;61487.56;5008485;28;20052;-80
2023/01/18 04:54:11;;;;;;;17.67;10.02;;;;;;;-144.87;100.00;61487.56;5025767;28;20040;-80
2023/01/18 04:56:37;;;;;;;16.58;10.25;;;;;;;-144.87;100.00;61487.56;5008379;28;20049;-81
2023/01/18 04:59:03;;;;;;;20.77;10.68;;;;;;;-144.87;100.00;61487.56;4990689;28;20053;-80
2023/01/18 05:01:30;;;;;;;19.77;10.07;;;;;;;-144.87;100.00;61487.56;4989969;28;20400;-80
2023/01/18 05:03:56;;;;;;;15.15;9.65;;;;;;;-144.87;100.00;61487.56;5010250;28;20041;-79
2023/01/18 05:06:23;;;;;;;16.10;9.73;;;;;;;-144.87;100.00;61487.56;5021703;28;20444;-80
2023/01/18 05:08:49;;;;;;;18.65;10.07;;;;;;;-144.87;100.00;61487.56;5008962;28;20033;-80
2023/01/18 05:11:19;;;;;;;19.83;10.52;;;;;;;-144.87;100.00;61487.56;5004742;28;20128;-79
2023/01/18 05:13:46;;;;;;;21.05;11.52;;;;;;;-144.87;100.00;61487.56;5009311;28;20044;-78
2023/01/18 05:16:17;;;;;;;17.63;9.77;;;;;;;-144.87;100.00;61487.56;5005626;28;20037;-79
2023/01/18 05:18:44;;;;;;;16.38;8.82;;;;;;;-144.87;100.00;61487.56;5006941;28;20037;-79
2023/01/18 05:21:11;;;;;;;25.33;10.32;;;;;;;-144.87;100.00;61487.56;4991656;28;20045;-79
2023/01/18 05:23:39;;;;;;;18.15;9.13;;;;;;;-144.87;100.00;61487.56;5006128;28;20038;-79
2023/01/18 05:26:13;;;;;;;16.70;9.57;;;;;;;-144.87;100.00;61487.56;5009018;28;20391;-79
2023/01/18 05:28:40;;;;;;;18.85;9.70;;;;;;;-144.87;100.00;61487.56;5009886;28;20060;-79
2023/01/18 05:31:06;;;;;;;23.52;8.98;;;;;;;-144.87;100.00;61487.56;5004476;28;20025;-78
2023/01/18 05:33:33;;;;;;;17.67;8.90;;;;;;;-144.87;100.00;61487.56;5009545;28;20033;-81
2023/01/18 05:35:59;;;;;;;15.00;8.85;;;;;;;-144.87;100.00;61487.56;4995754;28;20096;-79
2023/01/18 05:38:25;;;;;;;20.33;9.02;;;;;;;-144.87;100.00;61487.56;4994324;28;20709;-79
2023/01/18 05:40:53;;;;;;;18.27;8.77;;;;;;;-144.87;100.00;61487.56;5012558;28;20531;-79
2023/01/18 05:43:21;;;;;;;19.52;9.63;;;;;;;-144.87;100.00;61487.56;4992919;28;20095;-80
2023/01/18 05:45:48;;;;;;;15.75;9.02;;;;;;;-144.87;100.00;61487.56;5008929;28;20033;-79
2023/01/18 05:48:14;;;;;;;16.38;8.60;;;;;;;-144.87;100.00;61487.56;5011263;28;20044;-79
2023/01/18 05:50:45;;;;;;;18.55;10.00;;;;;;;-144.87;100.00;61487.56;5010246;28;20131;-79
2023/01/18 05:53:16;;;;;;;17.17;9.02;;;;;;;-144.87;100.00;61487.56;4983396;28;20048;-79
2023/01/18 05:55:43;;;;;;;21.77;10.35;;;;;;;-144.87;100.00;61487.56;5012363;28;20052;-79
2023/01/18 05:58:10;;;;;;;20.95;9.05;;;;;;;-144.87;100.00;61487.56;5019543;28;20066;-79
2023/01/18 06:00:36;;;;;;;20.83;9.35;;;;;;;-144.87;100.00;61487.56;5026323;28;20041;-83
2023/01/18 06:03:03;;;;;;;22.67;10.50;;;;;;;-144.87;100.00;61487.56;5015497;28;20076;-79
2023/01/18 06:05:29;;;;;;;19.60;9.77;;;;;;;-144.87;100.00;61487.56;5028311;28;20032;-79
2023/01/18 06:07:55;;;;;;;21.95;9.93;;;;;;;-144.87;100.00;61487.56;5014248;28;20037;-79
2023/01/18 06:10:22;;;;;;;19.38;9.93;;;;;;;-144.87;100.00;61487.56;5014673;28;20412;-79
2023/01/18 06:12:48;;;;;;;21.85;10.23;;;;;;;-144.87;100.00;61487.56;4996054;28;20448;-79
2023/01/18 06:15:14;;;;;;;17.02;9.57;;;;;;;-144.87;100.00;61487.56;5031888;28;20049;-80
2023/01/18 06:17:42;;;;;;;21.23;10.18;;;;;;;-144.87;100.00;61487.56;5014093;28;20037;-79
2023/01/18 06:20:11;;;;;;;16.13;9.70;;;;;;;-144.87;100.00;61487.56;4981535;28;20038;-79
2023/01/18 06:22:37;;;;;;;18.98;10.05;;;;;;;-144.87;100.00;61487.56;5024237;28;20107;-79
2023/01/18 06:25:04;;;;;;;19.52;10.10;;;;;;;-144.87;100.00;61487.56;5032070;28;20048;-79
2023/01/18 06:27:31;;;;;;;18.85;10.75;;;;;;;-144.87;100.00;61487.56;5013658;28;20029;-79
2023/01/18 06:29:57;;;;;;;19.48;10.55;;;;;;;-144.87;100.00;61487.56;5013361;28;20124;-80
2023/01/18 06:32:23;;;;;;;20.60;12.30;;;;;;;-144.87;100.00;61487.56;4977311;28;20038;-79
2023/01/18 06:34:49;;;;;;;16.92;10.63;;;;;;;-144.87;100.00;61487.56;5029675;28;20043;-80
2023/01/18 06:37:16;;;;;;;21.42;11.02;;;;;;;-144.87;100.00;61487.56;4997879;28;20124;-79
2023/01/18 06:39:42;;;;;;;19.00;11.10;;;;;;;-144.87;100.00;61487.56;4977354;28;20033;-79
2023/01/18 06:42:09;;;;;;;23.05;11.30;;;;;;;-144.87;100.00;61487.56;5021515;28;20038;-80
2023/01/18 06:44:35;;;;;;;23.40;11.15;;;;;;;-144.87;100.00;61487.56;5008054;28;20026;-80
2023/01/18 06:47:02;;;;;;;22.90;10.98;;;;;;;-144.87;100.00;61487.56;5010030;28;20577;-79
2023/01/18 06:49:28;;;;;;;24.67;11.35;;;;;;;-144.87;100.00;61487.56;5027831;28;20125;-80
2023/01/18 06:51:54;;;;;;;18.38;9.98;;;;;;;-144.87;100.00;61487.56;4982439;28;20076;-79
2023/01/18 06:54:21;;;;;;;24.80;10.35;;;;;;;-144.87;100.00;61487.56;5013121;28;20549;-79
2023/01/18 06:56:47;;;;;;;18.33;10.02;;;;;;;-144.87;100.00;61487.56;5018937;28;20454;-79
2023/01/18 06:59:13;;;;;;;23.15;10.57;;;;;;;-144.87;100.00;61487.56;5022547;28;20033;-80
2023/01/18 07:01:39;;;;;;;24.58;10.70;;;;;;;-144.87;100.00;61487.56;5031233;28;20045;-80
2023/01/18 07:04:06;;;;;;;28.17;12.63;;;;;;;-144.87;100.00;61487.56;5012682;28;20045;-80
2023/01/18 07:06:32;;;;;;;25.98;11.45;;;;;;;-144.87;100.00;61487.56;4996354;28;20065;-79
2023/01/18 07:08:58;;;;;;;25.15;10.45;;;;;;;-144.87;100.00;61487.56;5012525;28;20400;-80
2023/01/18 07:11:24;;;;;;;16.98;10.30;;;;;;;-144.87;100.00;61487.56;5029803;28;20041;-79
2023/01/18 07:13:52;;;;;;;19.88;10.80;;;;;;;-144.87;100.00;61487.56;4994020;28;20045;-79
2023/01/18 07:16:20;;;;;;;17.73;10.32;;;;;;;-144.87;100.00;61487.56;5012764;28;20048;-80
2023/01/18 07:18:47;;;;;;;18.40;10.05;;;;;;;-144.87;100.00;61487.56;4993713;28;20034;-80
2023/01/18 07:21:15;;;;;;;21.60;9.98;;;;;;;-144.87;100.00;61487.56;5007752;28;20038;-79
2023/01/18 07:23:42;;;;;;;18.42;9.85;;;;;;;-144.87;100.00;61487.56;5026372;28;20045;-80
2023/01/18 07:26:09;;;;;;;18.23;9.35;;;;;;;-144.87;100.00;61487.56;5009619;28;20689;-79
2023/01/18 07:28:36;;;;;;;21.02;9.73;;;;;;;-144.87;100.00;61487.56;5009837;28;20120;-80
2023/01/18 07:31:03;;;;;;;20.70;9.23;;;;;;;-144.87;100.00;61487.56;5013064;28;20060;-80
2023/01/18 07:33:30;;;;;;;20.25;10.07;;;;;;;-144.87;100.00;61487.56;4996927;28;20141;-79
2023/01/18 07:35:57;;;;;;;18.65;8.70;;;;;;;-144.87;100.00;61487.56;5012401;28;20041;-79
2023/01/18 07:38:23;;;;;;;16.42;9.30;;;;;;;-144.87;100.00;61487.56;5012298;28;20033;-80
2023/01/18 07:40:50;;;;;;;20.23;9.45;;;;;;;-144.87;100.00;61487.56;4996415;28;20065;-80
2023/01/18 07:43:17;;;;;;;15.23;8.85;;;;;;;-144.87;100.00;61487.56;5013471;28;20222;-82
2023/01/18 07:45:50;;;;;;;17.88;9.85;;;;;;;-144.87;100.00;61487.56;5028679;28;20038;-80
2023/01/18 07:48:16;;;;;;;17.13;9.48;;;;;;;-144.87;100.00;61487.56;4995815;28;20140;-80
2023/01/18 07:50:43;;;;;;;21.98;8.95;;;;;;;-144.87;100.00;61487.56;5030721;28;20072;-80
2023/01/18 07:53:09;;;;;;;20.55;8.73;;;;;;;-144.87;100.00;61487.56;5030216;28;20052;-80
2023/01/18 07:55:37;;;;;;;21.20;9.77;;;;;;;-144.87;100.00;61487.56;5029743;28;20037;-80
2023/01/18 07:58:03;;;;;;;14.65;8.32;;;;;;;-144.87;100.00;61487.56;5024247;28;20487;-80
2023/01/18 08:00:30;;;;;;;20.45;8.93;;;;;;;-144.87;100.00;61487.56;4998465;28;20053;-80
2023/01/18 08:02:56;;;;;;;16.20;8.85;;;;;;;-144.87;100.00;61487.56;5029099;28;20154;-80
2023/01/18 08:05:25;;;;;;;17.02;9.38;;;;;;;-144.87;100.00;61487.56;5012558;28;20029;-80
2023/01/18 08:07:52;;;;;;;15.35;9.65;;;;;;;-144.87;100.00;61487.56;5013158;28;20514;-80
2023/01/18 08:10:19;;;;;;;17.33;9.30;;;;;;;-144.87;100.00;61487.56;5030417;28;20399;-80
2023/01/18 08:12:45;;;;;;;16.67;8.95;;;;;;;-144.87;100.00;61487.56;5012591;28;20503;-79
2023/01/18 08:15:12;;;;;;;15.55;8.98;;;;;;;-144.87;100.00;61487.56;4995855;28;20038;-79
2023/01/18 08:17:38;;;;;;;18.88;10.88;;;;;;;-144.87;100.00;61487.56;5027297;28;20055;-79
2023/01/18 08:20:08;;;;;;;24.92;12.25;;;;;;;-144.87;100.00;61487.56;5011678;28;20045;-79
2023/01/18 08:22:35;;;;;;;21.38;9.85;;;;;;;-144.87;100.00;61487.56;4980779;28;20037;-80
2023/01/18 08:25:02;;;;;;;19.33;10.23;;;;;;;-144.87;100.00;61487.56;5030135;28;20025;-79
2023/01/18 08:27:28;;;;;;;18.15;9.27;;;;;;;-144.87;100.00;61487.56;4989528;28;20042;-79
2023/01/18 08:29:56;;;;;;;16.40;9.60;;;;;;;-144.87;100.00;61487.56;5022877;28;20037;-79
2023/01/18 08:32:22;;;;;;;18.50;9.75;;;;;;;-144.87;100.00;61487.56;5030796;28;20041;-79
2023/01/18 08:35:26;;;;;;;19.10;10.05;;;;;;;-144.87;100.00;61487.56;5031513;28;20049;-80
2023/01/18 08:37:53;;;;;;;20.13;9.60;;;;;;;-144.87;100.00;61487.56;5022137;28;20044;-80
2023/01/18 08:40:20;;;;;;;18.45;9.75;;;;;;;-144.87;100.00;61487.56;5045023;28;20120;-81
2023/01/18 08:42:47;;;;;;;16.05;10.02;;;;;;;-144.87;100.00;61487.56;5025749;28;20064;-79
2023/01/18 08:45:14;;;;;;;16.48;9.43;;;;;;;-144.87;100.00;61487.56;5033616;28;20377;-79
2023/01/18 08:47:40;;;;;;;19.58;9.07;;;;;;;-144.87;100.00;61487.56;5020660;28;20042;-82
2023/01/18 08:50:08;;;;;;;18.00;9.82;;;;;;;-144.87;100.00;61487.56;5011907;28;20087;-80
2023/01/18 08:52:35;;;;;;;21.85;9.45;;;;;;;-144.87;100.00;61487.56;5012365;28;20049;-80
2023/01/18 08:55:06;;;;;;;18.85;10.13;;;;;;;-144.87;100.00;61487.56;4995112;28;20099;-80
2023/01/18 08:57:32;;;;;;;18.90;10.30;;;;;;;-144.87;100.00;61487.56;5029185;28;20080;-80
2023/01/18 08:59:59;;;;;;;17.05;9.60;;;;;;;-144.87;100.00;61487.56;5030075;28;20045;-80
2023/01/18 09:02:25;;;;;;;20.77;9.93;;;;;;;-144.87;100.00;61487.56;5012623;28;20267;-80
2023/01/18 09:04:52;;;;;;;16.63;9.60;;;;;;;-144.87;100.00;61487.56;5017962;28;20497;-80
2023/01/18 09:07:19;;;;;;;16.17;9.90;;;;;;;-144.87;100.00;61487.56;4992633;28;20396;-80
2023/01/18 09:09:45;;;;;;;19.27;10.55;;;;;;;-144.87;100.00;61487.56;5027055;28;20504;-80
2023/01/18 09:12:12;;;;;;;15.20;10.38;;;;;;;-144.87;100.00;61487.56;5029775;28;20040;-80
2023/01/18 09:14:39;;;;;;;20.50;10.23;;;;;;;-144.87;100.00;61487.56;5011827;28;20064;-82
2023/01/18 09:17:06;;;;;;;18.27;9.95;;;;;;;-144.87;100.00;61487.56;5029241;28;20114;-80
2023/01/18 09:19:32;;;;;;;20.40;10.40;;;;;;;-144.87;100.00;61487.56;5011272;28;20488;-80
2023/01/18 09:21:58;;;;;;;16.45;9.75;;;;;;;-144.87;100.00;61487.56;4988088;28;20021;-80
2023/01/18 09:24:25;;;;;;;20.70;9.98;;;;;;;-144.87;100.00;61487.56;5029374;28;20172;-80
2023/01/18 09:26:52;;;;;;;16.05;10.20;;;;;;;-144.87;100.00;61487.56;5011541;28;20037;-80
2023/01/18 09:29:18;;;;;;;20.80;11.15;;;;;;;-144.87;100.00;61487.56;4991542;28;20156;-80
2023/01/18 09:31:45;;;;;;;22.80;10.93;;;;;;;-144.87;100.00;61487.56;5028814;28;20049;-80
2023/01/18 09:34:12;;;;;;;25.55;11.10;;;;;;;-144.87;100.00;61487.56;5029336;28;20443;-79
2023/01/18 09:36:39;;;;;;;19.02;10.43;;;;;;;-144.87;100.00;61487.56;5011524;28;20064;-82
2023/01/18 09:39:06;;;;;;;19.10;10.27;;;;;;;-144.87;100.00;61487.56;5010939;28;20068;-80
2023/01/18 09:41:38;;;;;;;17.98;10.25;;;;;;;-144.87;100.00;61487.56;5011925;28;20040;-79
2023/01/18 09:44:23;;;;;;;18.33;9.93;;;;;;;-144.87;100.00;61487.56;5011695;28;20045;-79
2023/01/18 09:46:53;;;;;;;22.17;11.38;;;;;;;-144.87;100.00;61487.56;5011430;28;20033;-79
2023/01/18 09:49:40;;;;;;;19.25;10.48;;;;;;;-144.87;100.00;61487.56;4995025;28;20033;-80
2023/01/18 09:52:06;;;;;;;17.90;9.43;;;;;;;-144.87;100.00;61487.56;4995580;28;20033;-79
2023/01/18 09:54:48;;;;;;;15.90;9.27;;;;;;;-144.87;100.00;61487.56;5011491;28;20071;-79
2023/01/18 09:57:32;;;;;;;17.27;9.52;;;;;;;-144.87;100.00;61487.56;5011876;28;20397;-79
2023/01/18 09:59:59;;;;;;;21.25;10.23;;;;;;;-144.87;100.00;61487.56;5028445;28;20136;-79
2023/01/18 10:02:37;;;;;;;18.55;9.65;;;;;;;-144.87;100.00;61487.56;5029046;28;20120;-80
2023/01/18 10:05:20;;;;;;;14.48;9.23;;;;;;;-144.87;100.00;61487.56;5012389;28;20025;-79
2023/01/18 10:08:01;;;;;;;17.20;8.80;;;;;;;-144.87;100.00;61487.56;4995222;28;20026;-79
2023/01/18 10:10:36;;;;;;;21.40;10.27;;;;;;;-144.87;100.00;61487.56;5029171;28;20045;-79
2023/01/18 10:13:21;;;;;;;16.45;9.23;;;;;;;-144.87;100.00;61487.56;5012585;28;20389;-79
2023/01/18 10:15:48;;;;;;;19.02;9.48;;;;;;;-144.87;100.00;61487.56;5028461;28;20361;-79
2023/01/18 10:18:16;;;;;;;15.85;8.40;;;;;;;-144.87;100.00;61487.56;5027737;28;20168;-79
2023/01/18 10:21:32;;;;;;;16.70;8.77;;;;;;;-144.87;100.00;61487.56;5006108;28;20038;-80
2023/01/18 10:24:20;;;;;;;17.58;8.45;;;;;;;-144.87;100.00;61487.56;5028945;28;20711;-80
2023/01/18 10:26:48;;;;;;;15.02;8.05;;;;;;;-144.87;100.00;61487.56;5032089;28;20068;-78
2023/01/18 10:29:53;;;;;;;17.67;8.93;;;;;;;-144.87;100.00;61487.56;4997569;28;20045;-79
2023/01/18 10:32:21;;;;;;;19.35;9.45;;;;;;;-144.87;100.00;61487.56;5013725;28;20212;-79
2023/01/18 10:34:50;;;;;;;18.45;9.43;;;;;;;-144.87;100.00;61487.56;4998070;28;20099;-78
2023/01/18 10:37:28;;;;;;;17.40;8.40;;;;;;;-144.87;100.00;61487.56;5032202;28;20068;-79
2023/01/18 10:39:56;;;;;;;15.90;8.48;;;;;;;-144.87;100.00;61487.56;5031091;28;20047;-79
2023/01/18 10:42:28;;;;;;;18.17;8.10;;;;;;;-144.87;100.00;61487.56;5014619;28;20037;-78
2023/01/18 10:44:54;;;;;;;16.27;8.70;;;;;;;-144.87;100.00;61487.56;5014152;28;20124;-80
2023/01/18 10:47:20;;;;;;;12.75;8.23;;;;;;;-144.87;100.00;61487.56;5014090;28;20393;-80
2023/01/18 10:49:49;;;;;;;14.65;8.48;;;;;;;-144.87;100.00;61487.56;5032244;28;20436;-77
2023/01/18 10:52:26;;;;;;;15.27;8.35;;;;;;;-144.87;100.00;61487.56;4997066;28;20396;-81
2023/01/18 10:55:00;;;;;;;14.85;8.48;;;;;;;-144.87;100.00;61487.56;5029872;28;20103;-78
2023/01/18 10:57:33;;;;;;;18.02;8.50;;;;;;;-144.87;100.00;61487.56;4978738;28;20084;-79
2023/01/18 10:59:59;;;;;;;13.57;8.73;;;;;;;-144.87;100.00;61487.56;4994648;28;20440;-78
2023/01/18 11:02:35;;;;;;;18.40;9.55;;;;;;;-144.87;100.00;61487.56;5014174;28;20527;-79
2023/01/18 11:05:16;;;;;;;19.60;9.02;;;;;;;-144.87;100.00;61487.56;5013950;28;20538;-79
2023/01/18 11:07:42;;;;;;;19.05;8.50;;;;;;;-144.87;100.00;61487.56;5011153;28;20124;-79
2023/01/18 11:10:23;;;;;;;20.13;8.95;;;;;;;-144.87;100.00;61487.56;5014715;28;20103;-80
2023/01/18 11:12:51;;;;;;;20.75;9.18;;;;;;;-144.87;100.00;61487.56;5033188;28;20033;-78
2023/01/18 11:15:17;;;;;;;19.55;8.68;;;;;;;-144.87;100.00;61487.56;5011429;28;20408;-78
2023/01/18 11:17:44;;;;;;;15.02;9.10;;;;;;;-144.87;100.00;61487.56;5001782;28;20025;-78
2023/01/18 11:20:24;;;;;;;19.85;10.77;;;;;;;-144.87;100.00;61487.56;5035133;28;20033;-80
2023/01/18 11:23:03;;;;;;;17.60;9.13;;;;;;;-144.87;100.00;61487.56;5025714;28;20030;-79
2023/01/18 11:25:36;;;;;;;19.98;9.15;;;;;;;-144.87;100.00;61487.56;4997383;28;20345;-78
2023/01/18 11:28:06;;;;;;;20.85;8.77;;;;;;;-144.87;100.00;61487.56;5012025;28;20439;-79
2023/01/18 11:30:33;;;;;;;22.13;10.20;;;;;;;-144.87;100.00;61487.56;5010025;28;20060;-79
2023/01/18 11:32:59;;;;;;;14.02;8.60;;;;;;;-144.87;100.00;61487.56;5012127;28;20400;-78
2023/01/18 11:35:29;;;;;;;18.65;8.50;;;;;;;-144.87;100.00;61487.56;4996049;28;20087;-78
2023/01/18 11:37:58;;;;;;;18.58;9.20;;;;;;;-144.87;100.00;61487.56;5020529;28;20566;-78